Time;durP1;ratioP1;P1;durP2;ratioP2;P2;SDS_P1;SDS_P2;PMS_P1;PMS_P2;Temp;Humidity;BMP_temperature;BMP_pressure;BME280_temperature;BME280_humidity;BME280_pressure;Samples;Min_cycle;Max_cycle;Signal;HPM_P1;HPM_P2
2022/02/05 00:03:12;;;;;;;46.67;28.50;;;103.30;2227.20;;;;;;5065366;28;20052;-72
2022/02/05 00:05:46;;;;;;;46.60;28.80;;;103.30;2227.20;;;;;;5066239;28;20036;-72
2022/02/05 00:14:01;;;;;;;50.03;31.40;;;103.30;2227.20;;;;;;5071629;28;20047;-72
2022/02/05 00:43:12;;;;;;;42.65;29.30;;;102.90;2227.20;;;;;;5047912;28;20037;-72
2022/02/05 00:45:42;;;;;;;43.83;28.33;;;102.80;2227.20;;;;;;5030690;28;20029;-73
2022/02/05 00:48:09;;;;;;;46.30;28.38;;;102.80;2227.20;;;;;;5048296;28;20064;-73
2022/02/05 00:50:39;;;;;;;48.90;29.67;;;102.80;2227.20;;;;;;5049168;28;20044;-73
2022/02/05 00:55:37;;;;;;;45.28;28.33;;;102.80;2227.20;;;;;;5053398;28;20060;-72
2022/02/05 00:58:05;;;;;;;50.03;28.60;;;102.70;2227.20;;;;;;5068291;28;20059;-72
2022/02/05 01:00:33;;;;;;;45.30;27.95;;;102.60;2227.20;;;;;;5063311;28;20523;-72
2022/02/05 01:02:58;;;;;;;45.75;27.45;;;102.60;2227.20;;;;;;5061521;28;20027;-72
2022/02/05 01:05:24;;;;;;;47.10;28.55;;;102.60;2227.20;;;;;;5061747;28;20033;-72
2022/02/05 01:07:50;;;;;;;45.80;27.98;;;102.60;2227.20;;;;;;5060001;28;20032;-72
2022/02/05 01:10:16;;;;;;;40.92;27.33;;;102.60;2227.20;;;;;;5066810;28;20029;-72
2022/02/05 01:12:49;;;;;;;42.13;24.15;;;102.60;2227.20;;;;;;5062420;28;20048;-72
2022/02/05 01:15:19;;;;;;;43.30;26.77;;;102.50;2227.20;;;;;;5066966;28;20070;-72
2022/02/05 01:17:51;;;;;;;37.00;25.10;;;102.60;2227.20;;;;;;5068894;28;20021;-72
2022/02/05 01:20:47;;;;;;;42.53;27.17;;;102.60;2227.20;;;;;;5069974;28;20044;-73
2022/02/05 01:23:12;;;;;;;47.25;26.30;;;102.50;2227.20;;;;;;5068656;28;20033;-72
2022/02/05 01:25:44;;;;;;;39.30;25.67;;;102.60;2227.20;;;;;;5071482;28;20057;-72
2022/02/05 01:28:16;;;;;;;47.88;30.52;;;102.60;2227.20;;;;;;5071421;28;20055;-72
2022/02/05 01:30:46;;;;;;;61.20;35.60;;;102.70;2227.20;;;;;;5070076;28;20399;-72
2022/02/05 01:33:41;;;;;;;41.00;27.55;;;102.70;2227.20;;;;;;5071629;28;20020;-72
2022/02/05 01:57:41;;;;;;;40.15;25.38;;;103.20;2227.20;;;;;;5075741;28;20707;-72
2022/02/05 02:05:36;;;;;;;47.45;27.55;;;103.30;2227.20;;;;;;5075435;28;20040;-72
2022/02/05 02:14:19;;;;;;;53.17;25.90;;;128.00;2252.80;;;;;;5053054;28;20516;-72
2022/02/05 02:25:22;;;;;;;45.17;29.83;;;128.10;2252.80;;;;;;5052626;28;20116;-72
2022/02/05 02:32:31;;;;;;;40.72;26.85;;;128.20;2252.80;;;;;;5052843;28;20039;-72
2022/02/05 02:35:03;;;;;;;50.50;28.17;;;128.20;2252.80;;;;;;5052494;28;20457;-72
2022/02/05 02:37:35;;;;;;;50.35;29.25;;;128.20;2252.80;;;;;;5052750;28;20396;-72
2022/02/05 02:42:27;;;;;;;42.78;27.67;;;128.20;2252.80;;;;;;5051982;28;20025;-72
2022/02/05 02:44:53;;;;;;;49.22;30.48;;;128.30;2252.80;;;;;;5035514;28;20521;-72
2022/02/05 02:47:19;;;;;;;37.25;27.00;;;128.40;2252.80;;;;;;5050902;28;20035;-73
2022/02/05 02:57:53;;;;;;;45.40;30.98;;;128.20;2252.80;;;;;;5061369;28;20284;-72
2022/02/05 03:00:20;;;;;;;41.88;27.83;;;128.20;2252.80;;;;;;5073929;28;20052;-72
2022/02/05 03:02:45;;;;;;;48.30;29.65;;;128.30;2252.80;;;;;;5074031;28;20101;-72
2022/02/05 03:05:11;;;;;;;48.80;30.77;;;128.30;2252.80;;;;;;5073024;28;20535;-72
2022/02/05 03:07:37;;;;;;;43.33;30.13;;;128.30;2252.80;;;;;;5072880;28;20066;-72
2022/02/05 03:10:03;;;;;;;49.08;30.02;;;128.30;2252.80;;;;;;5072354;28;20039;-72
2022/02/05 03:12:29;;;;;;;45.72;29.10;;;128.20;2252.80;;;;;;5073827;28;20031;-72
2022/02/05 03:14:55;;;;;;;48.90;28.98;;;128.20;2252.80;;;;;;5074140;28;20017;-72
2022/02/05 03:17:24;;;;;;;46.67;30.50;;;128.20;2252.80;;;;;;5072625;28;20127;-72
2022/02/05 03:19:51;;;;;;;58.97;29.48;;;128.20;2252.80;;;;;;5074113;28;20016;-72
2022/02/05 03:22:22;;;;;;;42.20;26.63;;;128.20;2252.80;;;;;;5074010;28;20013;-72
2022/02/05 03:24:48;;;;;;;43.88;28.23;;;128.20;2252.80;;;;;;5072376;28;20040;-72
2022/02/05 03:27:16;;;;;;;43.13;28.98;;;128.10;2252.80;;;;;;5073569;28;20391;-72
2022/02/05 03:29:46;;;;;;;45.55;30.02;;;128.10;2252.80;;;;;;5073619;28;20035;-72
2022/02/05 03:32:13;;;;;;;47.50;30.33;;;128.10;2252.80;;;;;;5073783;28;20017;-72
2022/02/05 03:34:39;;;;;;;50.78;30.17;;;128.10;2252.80;;;;;;5073485;28;20066;-72
2022/02/05 03:37:05;;;;;;;42.60;28.80;;;128.10;2252.80;;;;;;5072421;28;20021;-72
2022/02/05 03:39:31;;;;;;;42.20;28.25;;;128.10;2252.80;;;;;;5073486;28;20024;-72
2022/02/05 03:41:57;;;;;;;49.42;30.25;;;128.20;2252.80;;;;;;5072223;28;20067;-72
2022/02/05 03:44:24;;;;;;;46.63;28.02;;;128.10;2252.80;;;;;;5071988;28;20025;-72
2022/02/05 03:46:50;;;;;;;41.35;27.88;;;128.10;2252.80;;;;;;5072315;28;20028;-72
2022/02/05 03:49:18;;;;;;;44.50;27.90;;;128.10;2252.80;;;;;;5072759;28;20063;-74
2022/02/05 03:51:46;;;;;;;49.65;28.92;;;128.10;2252.80;;;;;;5071384;28;20020;-74
2022/02/05 03:54:12;;;;;;;47.25;28.60;;;128.10;2252.80;;;;;;5073376;28;20032;-72
2022/02/05 03:56:38;;;;;;;39.13;27.38;;;128.10;2252.80;;;;;;5072901;28;20024;-72
2022/02/05 03:59:04;;;;;;;55.42;29.45;;;128.10;2252.80;;;;;;5073237;28;20074;-71
2022/02/05 04:01:30;;;;;;;41.03;26.23;;;128.10;2252.80;;;;;;5072911;28;20134;-72
2022/02/05 04:03:55;;;;;;;47.75;30.88;;;128.10;2252.80;;;;;;5072944;28;20020;-72
2022/02/05 04:06:21;;;;;;;44.95;29.35;;;128.20;2252.80;;;;;;5088073;28;20491;-72
2022/02/05 04:08:49;;;;;;;57.83;33.88;;;128.20;2252.80;;;;;;5070876;28;20064;-72
2022/02/05 04:11:55;;;;;;;57.42;34.60;;;128.20;2252.80;;;;;;5072767;28;20488;-71
2022/02/05 04:16:47;;;;;;;52.58;33.28;;;128.20;2252.80;;;;;;5053707;28;20031;-72
2022/02/05 04:19:13;;;;;;;50.05;30.55;;;128.20;2252.80;;;;;;5072605;28;20024;-71
2022/02/05 04:21:39;;;;;;;48.38;30.23;;;128.20;2252.80;;;;;;5072719;28;20020;-71
2022/02/05 04:24:05;;;;;;;47.03;31.92;;;128.20;2252.80;;;;;;5072512;28;20106;-72
2022/02/05 04:26:31;;;;;;;46.58;32.75;;;128.10;2252.80;;;;;;5072570;28;20109;-72
2022/02/05 04:28:57;;;;;;;45.42;29.80;;;128.20;2252.80;;;;;;5072776;28;20064;-72
2022/02/05 04:31:24;;;;;;;54.42;32.75;;;128.20;2252.80;;;;;;5072113;28;20025;-71
2022/02/05 04:33:50;;;;;;;47.30;29.42;;;128.20;2252.80;;;;;;5072735;28;20029;-71
2022/02/05 04:36:18;;;;;;;51.63;31.98;;;128.20;2252.80;;;;;;5072358;28;20066;-72
2022/02/05 04:38:46;;;;;;;46.67;31.27;;;128.20;2252.80;;;;;;5072625;28;20066;-71
2022/02/05 04:41:19;;;;;;;56.30;33.50;;;128.10;2252.80;;;;;;5071092;28;20044;-71
2022/02/05 04:44:42;;;;;;;52.97;34.95;;;128.10;2252.80;;;;;;5072386;28;20032;-72
2022/02/05 04:55:04;;;;;;;63.53;39.28;;;128.20;2252.80;;;;;;5010948;28;20041;-73
2022/02/05 05:00:09;;;;;;;59.55;38.47;;;128.20;2252.80;;;;;;5010562;28;20026;-73
2022/02/05 05:02:47;;;;;;;69.53;40.67;;;128.20;2252.80;;;;;;5010539;28;20018;-73
2022/02/05 05:05:25;;;;;;;57.97;39.42;;;128.20;2252.80;;;;;;5023805;28;20266;-73
2022/02/05 05:08:10;;;;;;;67.38;42.40;;;128.20;2252.80;;;;;;5029986;28;20042;-75
2022/02/05 05:13:37;;;;;;;68.68;39.85;;;128.20;2252.80;;;;;;5030253;28;20528;-74
2022/02/05 05:21:13;;;;;;;61.58;44.35;;;128.30;2252.80;;;;;;5030127;28;20080;-74
2022/02/05 05:23:39;;;;;;;78.13;51.50;;;128.20;2252.80;;;;;;5028951;28;20033;-73
2022/02/05 05:26:05;;;;;;;80.53;49.42;;;128.20;2252.80;;;;;;5044724;28;20053;-73
2022/02/05 05:28:31;;;;;;;71.55;47.03;;;128.20;2252.80;;;;;;5073267;28;20033;-73
2022/02/05 05:30:56;;;;;;;67.57;45.38;;;128.20;2252.80;;;;;;5073500;28;20033;-72
2022/02/05 05:33:22;;;;;;;63.88;42.17;;;128.20;2252.80;;;;;;5075996;28;20067;-72
2022/02/05 05:35:48;;;;;;;60.03;38.60;;;128.10;2252.80;;;;;;5075298;28;20482;-73
2022/02/05 05:38:14;;;;;;;62.47;41.33;;;128.10;2252.80;;;;;;5075765;28;20174;-72
2022/02/05 05:40:42;;;;;;;64.03;42.22;;;128.10;2252.80;;;;;;5075364;28;20025;-73
2022/02/05 05:43:19;;;;;;;71.05;40.15;;;128.00;2252.80;;;;;;5074338;28;20043;-73
2022/02/05 05:48:26;;;;;;;66.43;41.28;;;128.10;2252.80;;;;;;5075396;28;20017;-73
2022/02/05 05:50:58;;;;;;;65.80;43.05;;;128.10;2252.80;;;;;;5073584;28;20102;-73
2022/02/05 05:53:25;;;;;;;77.72;43.17;;;128.20;2252.80;;;;;;5075005;28;20040;-73
2022/02/05 05:55:51;;;;;;;65.50;43.53;;;128.20;2252.80;;;;;;5073061;28;20016;-73
2022/02/05 05:58:18;;;;;;;77.55;46.53;;;128.20;2252.80;;;;;;5067740;28;20043;-73
2022/02/05 06:00:45;;;;;;;68.07;44.80;;;128.10;2252.80;;;;;;5075364;28;20929;-72
2022/02/05 06:03:11;;;;;;;90.57;53.13;;;128.00;2252.80;;;;;;5075115;28;20455;-72
2022/02/05 06:05:37;;;;;;;83.78;51.95;;;128.00;2252.80;;;;;;5073581;28;20435;-72
2022/02/05 06:08:04;;;;;;;76.13;49.20;;;103.30;2227.20;;;;;;5072235;28;20063;-72
2022/02/05 06:10:31;;;;;;;76.13;50.22;;;103.30;2227.20;;;;;;5070226;28;20475;-73
2022/02/05 06:12:56;;;;;;;76.65;49.92;;;103.30;2227.20;;;;;;5064086;28;20112;-73
2022/02/05 06:15:23;;;;;;;84.35;52.72;;;128.00;2252.80;;;;;;5062333;28;20104;-72
2022/02/05 06:17:51;;;;;;;87.65;51.50;;;128.10;2252.80;;;;;;5069859;28;20440;-72
2022/02/05 06:20:17;;;;;;;94.63;57.17;;;128.10;2252.80;;;;;;5074807;28;20043;-72
2022/02/05 06:22:42;;;;;;;84.65;53.55;;;128.10;2252.80;;;;;;5073524;28;20028;-72
2022/02/05 06:25:09;;;;;;;70.75;49.90;;;128.20;2252.80;;;;;;5074215;28;20052;-73
2022/02/05 06:27:34;;;;;;;74.75;49.67;;;128.30;2252.80;;;;;;5074763;28;20697;-73
2022/02/05 06:30:00;;;;;;;73.28;49.30;;;128.30;2252.80;;;;;;5074644;28;20021;-72
2022/02/05 06:32:26;;;;;;;77.65;50.40;;;128.30;2252.80;;;;;;5074368;28;20387;-72
2022/02/05 06:34:51;;;;;;;77.15;50.60;;;128.30;2252.80;;;;;;5074907;28;20054;-73
2022/02/05 06:37:18;;;;;;;77.25;51.70;;;128.30;2252.80;;;;;;5074332;28;20020;-73
2022/02/05 06:39:44;;;;;;;86.70;54.83;;;128.40;2252.80;;;;;;5073150;28;20025;-72
2022/02/05 06:42:10;;;;;;;111.13;65.95;;;128.40;2252.80;;;;;;5071580;28;20051;-72
2022/02/05 06:44:36;;;;;;;135.70;77.20;;;128.40;2252.80;;;;;;5074334;28;20486;-72
2022/02/05 06:47:02;;;;;;;136.80;73.60;;;128.40;2252.80;;;;;;5072429;28;20020;-72
2022/02/05 06:49:30;;;;;;;109.28;64.13;;;128.50;2252.80;;;;;;5073339;28;20020;-73
2022/02/05 06:51:57;;;;;;;70.50;49.40;;;128.50;2252.80;;;;;;5073458;28;20074;-73
2022/02/05 06:54:23;;;;;;;118.25;68.35;;;128.50;2252.80;;;;;;5072982;28;20036;-73
2022/02/05 06:56:49;;;;;;;132.93;73.95;;;128.50;2252.80;;;;;;5074252;28;20036;-72
2022/02/05 06:59:15;;;;;;;102.10;63.13;;;128.50;2252.80;;;;;;5073910;28;20027;-72
2022/02/05 07:01:40;;;;;;;90.18;59.85;;;128.50;2252.80;;;;;;5073991;28;20067;-72
2022/02/05 07:04:07;;;;;;;93.30;62.20;;;128.60;2252.80;;;;;;5072521;28;20099;-72
2022/02/05 07:06:33;;;;;;;102.32;61.38;;;128.70;2252.80;;;;;;5072690;28;20017;-72
2022/02/05 07:09:00;;;;;;;88.20;57.05;;;128.80;2252.80;;;;;;5073946;28;20487;-73
2022/02/05 07:11:26;;;;;;;94.72;61.83;;;128.80;2252.80;;;;;;5074052;28;20043;-73
2022/02/05 07:13:54;;;;;;;146.18;85.82;;;153.60;2252.80;;;;;;5072190;28;20037;-74
2022/02/05 07:16:27;;;;;;;99.13;63.20;;;128.90;2252.80;;;;;;5072450;28;20060;-74
2022/02/05 07:29:16;;;;;;;91.93;56.42;;;153.90;2252.80;;;;;;5070856;28;20081;-73
2022/02/05 07:31:48;;;;;;;91.68;58.30;;;154.00;2252.80;;;;;;5073314;28;20027;-73
2022/02/05 07:34:20;;;;;;;101.40;58.50;;;154.20;2252.80;;;;;;5073326;28;20023;-73
2022/02/05 07:36:48;;;;;;;100.80;63.60;;;154.40;2252.80;;;;;;5073072;28;20028;-73
2022/02/05 07:39:14;;;;;;;108.28;66.13;;;154.50;2252.80;;;;;;5071788;28;20032;-73
2022/02/05 07:41:41;;;;;;;181.23;103.10;;;179.20;2252.80;;;;;;5072917;28;20500;-73
2022/02/05 07:44:12;;;;;;;145.35;85.25;;;179.20;2252.80;;;;;;5072549;28;20029;-74
2022/02/05 07:46:47;;;;;;;136.10;78.50;;;179.30;2252.80;;;;;;5071374;28;20033;-74
2022/02/05 07:49:14;;;;;;;153.10;85.43;;;179.40;2252.80;;;;;;5086954;28;20034;-73
2022/02/05 07:51:40;;;;;;;104.65;65.15;;;179.50;2252.80;;;;;;5072039;28;20581;-73
2022/02/05 07:54:10;;;;;;;100.22;60.83;;;179.60;2252.80;;;;;;5072467;28;20471;-73
2022/02/05 07:56:46;;;;;;;108.38;71.18;;;179.80;2252.80;;;;;;5069591;28;20032;-73
2022/02/05 07:59:13;;;;;;;180.50;102.68;;;179.80;2252.80;;;;;;5070111;28;20036;-74
2022/02/05 08:01:39;;;;;;;177.45;100.90;;;179.80;2252.80;;;;;;5069952;28;20552;-74
2022/02/05 08:04:05;;;;;;;151.02;88.10;;;179.80;2252.80;;;;;;5071173;28;20036;-74
2022/02/05 08:06:32;;;;;;;139.13;80.97;;;179.80;2252.80;;;;;;5071880;28;20024;-73
2022/02/05 08:09:01;;;;;;;138.50;80.85;;;179.90;2252.80;;;;;;5072037;28;20029;-73
2022/02/05 08:11:40;;;;;;;131.05;85.57;;;180.00;2252.80;;;;;;5070570;28;20033;-72
2022/02/05 08:14:09;;;;;;;136.00;78.40;;;180.10;2252.80;;;;;;5071883;28;20017;-73
2022/02/05 08:19:05;;;;;;;96.55;62.88;;;205.00;2252.80;;;;;;5072342;28;20151;-73
2022/02/05 08:21:30;;;;;;;93.03;62.45;;;205.10;2252.80;;;;;;5071518;28;20115;-73
2022/02/05 08:23:56;;;;;;;126.63;75.38;;;205.30;2252.80;;;;;;5071528;28;20470;-70
2022/02/05 08:26:27;;;;;;;142.00;80.70;;;205.50;2252.80;;;;;;5071264;28;20503;-72
2022/02/05 08:28:57;;;;;;;110.72;65.22;;;205.60;2252.80;;;;;;5071272;28;20020;-72
2022/02/05 08:31:23;;;;;;;164.35;88.30;;;205.60;2252.80;;;;;;5068170;28;20021;-73
2022/02/05 08:33:52;;;;;;;140.15;79.05;;;205.70;2252.80;;;;;;5071607;28;20040;-72
2022/02/05 08:36:22;;;;;;;187.60;98.43;;;230.40;2252.80;;;;;;5072019;28;20387;-73
2022/02/05 08:38:49;;;;;;;201.15;101.22;;;230.40;2252.80;;;;;;5067603;28;20024;-73
2022/02/05 08:41:14;;;;;;;165.38;86.30;;;230.40;2252.80;;;;;;5070092;28;20024;-73
2022/02/05 08:43:40;;;;;;;125.80;71.80;;;230.40;2252.80;;;;;;5069024;28;20464;-73
2022/02/05 08:46:06;;;;;;;141.07;79.55;;;230.70;2252.80;;;;;;5072340;28;20074;-72
2022/02/05 08:48:32;;;;;;;143.98;77.30;;;230.80;2252.80;;;;;;5070507;28;20040;-73
2022/02/05 08:50:58;;;;;;;140.48;71.13;;;231.00;2252.80;;;;;;5071087;28;20024;-73
2022/02/05 08:53:24;;;;;;;157.63;78.32;;;231.10;2252.80;;;;;;5072335;28;20020;-73
2022/02/05 08:55:52;;;;;;;120.50;65.45;;;231.10;2252.80;;;;;;5072141;28;20445;-73
2022/02/05 08:58:19;;;;;;;80.38;52.55;;;231.00;2252.80;;;;;;5072357;28;20039;-72
2022/02/05 09:00:48;;;;;;;77.15;52.40;;;231.00;2252.80;;;;;;5072154;28;20021;-73
2022/02/05 09:03:38;;;;;;;100.38;61.47;;;231.20;2252.80;;;;;;5071447;28;20024;-73
2022/02/05 09:06:06;;;;;;;98.10;59.95;;;256.20;2252.80;;;;;;5071872;28;20428;-74
2022/02/05 09:08:41;;;;;;;66.13;40.03;;;256.90;2252.80;;;;;;5070643;28;20622;-73
2022/02/05 09:16:15;;;;;;;64.47;40.05;;;307.20;2304.00;;;;;;5076614;28;20514;-73
2022/02/05 09:18:43;;;;;;;52.45;36.40;;;307.70;2304.00;;;;;;5071791;28;20082;-73
2022/02/05 09:21:10;;;;;;;55.63;39.22;;;332.80;2329.60;;;;;;5070503;28;20036;-73
2022/02/05 09:23:39;;;;;;;47.35;33.95;;;333.00;2329.60;;;;;;5074435;28;20033;-74
2022/02/05 09:26:07;;;;;;;42.38;29.58;;;332.90;2329.60;;;;;;5071842;28;20049;-73
2022/02/05 09:28:34;;;;;;;45.33;30.40;;;308.00;2304.00;;;;;;5071532;28;20032;-73
2022/02/05 09:33:33;;;;;;;47.78;29.25;;;307.40;2304.00;;;;;;5071881;28;20029;-73
2022/02/05 09:35:59;;;;;;;38.78;28.88;;;307.70;2304.00;;;;;;5071882;28;20025;-73
2022/02/05 09:38:27;;;;;;;34.90;27.30;;;307.90;2304.00;;;;;;5071979;28;20039;-72
2022/02/05 09:40:53;;;;;;;37.88;24.35;;;333.10;2329.60;;;;;;5070518;28;20039;-73
2022/02/05 09:43:26;;;;;;;31.35;24.25;;;333.70;2329.60;;;;;;5071195;28;20379;-73
2022/02/05 09:45:53;;;;;;;29.10;20.90;;;358.50;2329.60;;;;;;5049675;28;20055;-73
2022/02/05 09:48:19;;;;;;;35.15;23.20;;;359.00;2329.60;;;;;;5051407;28;20384;-72
2022/02/05 09:50:47;;;;;;;35.35;21.58;;;384.00;2329.60;;;;;;5071203;28;20096;-73
2022/02/05 09:53:14;;;;;;;27.85;21.13;;;384.00;2329.60;;;;;;5069893;28;20033;-73
2022/02/05 09:55:45;;;;;;;29.23;20.17;;;359.10;2329.60;;;;;;5071446;28;20048;-73
2022/02/05 09:58:12;;;;;;;29.40;20.85;;;358.90;2329.60;;;;;;5070415;28;20494;-73
2022/02/05 10:00:38;;;;;;;26.83;21.95;;;358.70;2329.60;;;;;;5069515;28;20528;-73
2022/02/05 10:03:25;;;;;;;27.15;20.08;;;358.60;2329.60;;;;;;5080890;28;20025;-73
2022/02/05 10:06:20;;;;;;;25.27;19.80;;;333.70;2329.60;;;;;;5059058;28;20060;-73
2022/02/05 10:08:55;;;;;;;31.98;22.33;;;333.70;2329.60;;;;;;5067015;28;20029;-73
2022/02/05 10:11:21;;;;;;;34.22;22.85;;;333.70;2329.60;;;;;;5062855;28;20079;-73
2022/02/05 10:13:46;;;;;;;37.30;26.23;;;358.40;2329.60;;;;;;5072211;28;20024;-73
2022/02/05 10:16:13;;;;;;;37.03;26.73;;;333.70;2329.60;;;;;;5077201;28;20107;-73
2022/02/05 10:18:43;;;;;;;47.10;30.20;;;333.70;2329.60;;;;;;5073843;28;20024;-73
2022/02/05 10:21:21;;;;;;;58.85;32.35;;;358.50;2329.60;;;;;;5072140;28;20028;-73
2022/02/05 10:24:13;;;;;;;46.22;28.45;;;358.40;2329.60;;;;;;5074059;28;20024;-73
2022/02/05 10:26:42;;;;;;;53.42;31.38;;;358.60;2329.60;;;;;;5069234;28;20691;-73
2022/02/05 10:29:16;;;;;;;40.78;27.90;;;358.90;2329.60;;;;;;5073468;28;20038;-73
2022/02/05 10:32:15;;;;;;;55.15;35.45;;;384.00;2329.60;;;;;;5072857;28;20028;-73
2022/02/05 10:34:58;;;;;;;49.35;31.80;;;384.60;2329.60;;;;;;5065898;28;20021;-72
2022/02/05 10:37:28;;;;;;;40.58;28.42;;;409.60;2355.20;;;;;;5071025;28;20100;-72
2022/02/05 10:40:07;;;;;;;48.60;30.00;;;384.60;2329.60;;;;;;5072192;28;20028;-73
2022/02/05 10:45:19;;;;;;;39.38;28.40;;;409.80;2355.20;;;;;;5078544;28;20104;-72
2022/02/05 10:47:47;;;;;;;35.38;22.63;;;435.40;2355.20;;;;;;5074505;28;20410;-72
2022/02/05 10:50:16;;;;;;;10.75;6.78;;;435.90;2355.20;;;;;;5086885;28;20037;-72
2022/02/05 10:52:52;;;;;;;11.07;7.25;;;435.60;1996.80;;;;;;5072908;28;20024;-73
2022/02/05 10:55:31;;;;;;;;;;;435.50;2073.60;;;;;;5073354;28;20081;-72
2022/02/05 11:05:46;;;;;;;14.35;8.00;;;436.10;2227.20;;;;;;5072914;28;20039;-72
2022/02/05 11:08:14;;;;;;;11.55;7.75;;;461.50;1971.20;;;;;;5067598;28;20021;-73
2022/02/05 11:21:12;;;;;;;12.43;6.65;;;436.10;1817.60;;;;;;5072660;28;20386;-73
2022/02/05 11:23:38;;;;;;;8.55;5.82;;;435.90;1894.40;;;;;;5070631;28;20024;-73
2022/02/05 11:26:06;;;;;;;11.48;5.90;;;461.20;1868.80;;;;;;5073389;28;20087;-72
2022/02/05 11:28:43;;;;;;;12.73;7.15;;;486.40;1740.80;;;;;;5075979;28;20029;-72
2022/02/05 11:31:13;;;;;;;11.52;6.80;;;461.50;1792.00;;;;;;5072812;28;20021;-73
2022/02/05 11:33:39;;;;;;;15.00;5.82;;;461.40;1740.80;;;;;;5076961;28;20033;-76
2022/02/05 11:38:44;;;;;;;13.77;6.07;;;461.00;1740.80;;;;;;5079764;28;20029;-72
2022/02/05 11:41:26;;;;;;;13.10;6.65;;;436.10;1740.80;;;;;;5072561;28;20861;-73
2022/02/05 11:44:18;;;;;;;20.15;7.45;;;461.00;1715.20;;;;;;5073438;28;20025;-72
2022/02/05 11:47:11;;;;;;;7.65;4.50;;;461.30;1664.00;;;;;;5067254;28;20089;-72
2022/02/05 11:49:52;;;;;;;17.08;6.70;;;461.00;1612.80;;;;;;5077232;28;20048;-72
2022/02/05 11:52:36;;;;;;;15.57;7.38;;;461.30;1638.40;;;;;;5089416;28;20101;-72
2022/02/05 11:55:13;;;;;;;12.30;5.65;;;486.40;1587.20;;;;;;5088553;28;20036;-73
2022/02/05 11:57:45;;;;;;;16.90;6.63;;;461.60;1587.20;;;;;;5072430;28;20024;-72
2022/02/05 12:00:18;;;;;;;14.07;6.88;;;461.30;1612.80;;;;;;5071731;28;20020;-72
2022/02/05 12:02:52;;;;;;;11.57;6.75;;;460.90;1638.40;;;;;;5072189;28;20036;-72
2022/02/05 12:05:21;;;;;;;13.27;6.63;;;435.70;1689.60;;;;;;5072611;28;20051;-72
2022/02/05 12:08:28;;;;;;;11.55;6.88;;;435.20;1766.40;;;;;;5071164;28;20040;-72
2022/02/05 12:10:57;;;;;;;10.35;6.55;;;435.40;1792.00;;;;;;5068914;28;20028;-72
2022/02/05 12:13:26;;;;;;;14.93;8.10;;;435.20;1843.20;;;;;;5073173;28;20055;-72
2022/02/05 12:15:54;;;;;;;16.13;8.82;;;410.10;2073.60;;;;;;5069077;28;20016;-72
2022/02/05 12:18:25;;;;;;;14.85;8.18;;;384.80;2252.80;;;;;;5070625;28;20099;-71
2022/02/05 12:20:57;;;;;;;13.98;7.55;;;384.20;2329.60;;;;;;5054621;28;20036;-71
2022/02/05 12:26:13;;;;;;;14.77;8.80;;;358.90;2329.60;;;;;;5073481;28;20083;-71
2022/02/05 12:28:44;;;;;;;13.02;7.43;;;358.90;2329.60;;;;;;5072163;28;20445;-70
2022/02/05 12:31:25;;;;;;;15.02;8.23;;;358.80;2329.60;;;;;;5062740;28;20467;-69
2022/02/05 12:34:23;;;;;;;11.18;7.32;;;358.60;2329.60;;;;;;5072436;28;20028;-69
2022/02/05 12:36:53;;;;;;;10.57;7.47;;;358.50;2329.60;;;;;;5022493;28;20503;-72
2022/02/05 12:39:31;;;;;;;14.38;7.75;;;333.50;2329.60;;;;;;5029350;28;20444;-72
2022/02/05 12:42:09;;;;;;;15.95;9.48;;;333.40;2329.60;;;;;;5029742;28;20044;-71
2022/02/05 12:44:38;;;;;;;20.42;11.32;;;333.30;2329.60;;;;;;5014128;28;20032;-71
2022/02/05 12:47:08;;;;;;;14.52;10.07;;;333.20;2329.60;;;;;;5028842;28;20045;-72
2022/02/05 12:49:43;;;;;;;29.98;13.52;;;333.30;2329.60;;;;;;5028170;28;20109;-72
2022/02/05 12:52:10;;;;;;;20.55;11.63;;;333.10;2329.60;;;;;;5029055;28;20036;-73
2022/02/05 12:54:45;;;;;;;17.48;10.77;;;333.20;2329.60;;;;;;5028659;28;20588;-72
2022/02/05 12:57:16;;;;;;;14.93;8.35;;;333.20;2329.60;;;;;;5012433;28;20040;-73
2022/02/05 12:59:41;;;;;;;17.65;9.30;;;333.00;2329.60;;;;;;5029942;28;20378;-71
2022/02/05 13:02:10;;;;;;;17.65;12.18;;;333.10;2329.60;;;;;;5025680;28;20502;-72
2022/02/05 13:04:36;;;;;;;26.35;12.50;;;333.10;2329.60;;;;;;5027461;28;20052;-71
2022/02/05 13:07:21;;;;;;;18.85;9.20;;;333.00;2329.60;;;;;;5009269;28;20701;-71
2022/02/05 13:09:52;;;;;;;15.88;9.30;;;332.90;2329.60;;;;;;5015366;28;20431;-71
2022/02/05 13:12:22;;;;;;;15.30;9.35;;;332.80;2329.60;;;;;;5038362;28;20065;-71
2022/02/05 13:14:58;;;;;;;15.52;8.95;;;332.90;2329.60;;;;;;5071969;28;20047;-71
2022/02/05 13:36:18;;;;;;;13.15;6.70;;;332.80;2329.60;;;;;;5073536;28;20112;-72
2022/02/05 13:41:56;;;;;;;7.88;4.88;;;308.00;2304.00;;;;;;5069125;28;20040;-72
2022/02/05 13:44:24;;;;;;;10.10;4.75;;;307.80;2304.00;;;;;;5070523;28;20046;-71
2022/02/05 13:47:06;;;;;;;13.00;5.85;;;307.70;2304.00;;;;;;5069291;28;20029;-70
2022/02/05 13:49:33;;;;;;;12.05;6.97;;;307.50;2304.00;;;;;;5070474;28;20017;-71
2022/02/05 13:52:13;;;;;;;15.65;7.60;;;307.40;2304.00;;;;;;5068964;28;20415;-71
2022/02/05 13:54:41;;;;;;;12.15;6.70;;;307.30;2304.00;;;;;;5074161;28;20030;-71
2022/02/05 13:57:09;;;;;;;10.35;6.25;;;307.20;2304.00;;;;;;5072116;28;20028;-71
2022/02/05 13:59:35;;;;;;;9.57;6.30;;;307.20;2304.00;;;;;;5071437;28;20052;-71
2022/02/05 14:02:18;;;;;;;12.85;6.43;;;307.40;2304.00;;;;;;5072715;28;20024;-70
2022/02/05 14:05:05;;;;;;;9.10;6.15;;;307.20;2304.00;;;;;;5071925;28;20028;-72
2022/02/05 14:07:47;;;;;;;15.85;7.95;;;307.20;2304.00;;;;;;5012333;28;20029;-73
2022/02/05 14:10:16;;;;;;;7.88;5.90;;;282.50;2278.40;;;;;;5011093;28;20535;-72
2022/02/05 14:12:53;;;;;;;11.70;7.40;;;282.40;2278.40;;;;;;5014516;28;20113;-72
2022/02/05 14:15:20;;;;;;;13.65;6.65;;;282.30;2278.40;;;;;;5015181;28;20413;-72
2022/02/05 14:17:47;;;;;;;12.43;7.65;;;282.30;2278.40;;;;;;5019377;28;20414;-72
2022/02/05 14:20:15;;;;;;;15.98;7.78;;;282.10;2278.40;;;;;;5010504;28;20039;-73
2022/02/05 14:22:47;;;;;;;20.60;8.50;;;282.00;2278.40;;;;;;5012219;28;20037;-72
2022/02/05 14:25:22;;;;;;;9.93;6.63;;;282.00;2278.40;;;;;;5011935;28;20049;-71
2022/02/05 14:28:05;;;;;;;15.93;6.85;;;281.80;2278.40;;;;;;5014286;28;20025;-72
2022/02/05 14:30:31;;;;;;;11.60;5.55;;;281.70;2278.40;;;;;;5010137;28;20034;-71
2022/02/05 14:33:01;;;;;;;10.88;5.65;;;281.60;2278.40;;;;;;5013072;28;20069;-71
2022/02/05 14:40:49;;;;;;;8.57;3.90;;;256.70;2124.80;;;;;;5008593;28;20457;-71
2022/02/05 14:43:18;;;;;;;9.38;4.88;;;256.70;2252.80;;;;;;5008859;28;20478;-71
2022/02/05 14:45:45;;;;;;;12.27;3.50;;;256.70;2252.80;;;;;;5085257;28;20044;-71
2022/02/05 14:48:11;;;;;;;11.23;5.70;;;256.60;2252.80;;;;;;5068577;28;20021;-71
2022/02/05 14:50:39;;;;;;;18.42;5.47;;;256.50;2252.80;;;;;;5073038;28;20036;-71
2022/02/05 14:53:05;;;;;;;15.75;6.50;;;256.50;2252.80;;;;;;5071507;28;20033;-71
2022/02/05 14:55:31;;;;;;;18.05;8.07;;;256.50;2252.80;;;;;;5071264;28;20017;-71
2022/02/05 14:57:56;;;;;;;19.13;9.13;;;256.40;2252.80;;;;;;5070265;28;20077;-70
2022/02/05 15:00:23;;;;;;;19.25;10.25;;;256.40;2252.80;;;;;;5072074;28;20020;-71
2022/02/05 15:02:52;;;;;;;13.77;8.18;;;256.40;2252.80;;;;;;5072548;28;20013;-71
2022/02/05 15:05:18;;;;;;;15.63;8.60;;;256.40;2252.80;;;;;;5072882;28;20809;-71
2022/02/05 15:07:44;;;;;;;18.55;7.95;;;256.40;2252.80;;;;;;5070965;28;20009;-71
2022/02/05 15:10:14;;;;;;;13.90;6.88;;;256.30;2252.80;;;;;;5073014;28;20073;-71
2022/02/05 15:12:41;;;;;;;14.50;8.25;;;256.30;2252.80;;;;;;5069350;28;20048;-72
2022/02/05 15:15:20;;;;;;;20.42;9.45;;;256.30;2252.80;;;;;;5073233;28;20020;-72
2022/02/05 15:17:46;;;;;;;21.02;9.88;;;256.20;2252.80;;;;;;5071649;28;20028;-71
2022/02/05 15:20:14;;;;;;;12.52;8.45;;;256.20;2252.80;;;;;;5072886;28;20039;-71
2022/02/05 15:22:40;;;;;;;15.80;7.45;;;256.20;2252.80;;;;;;5073171;28;20031;-71
2022/02/05 15:25:06;;;;;;;13.93;6.55;;;256.10;2252.80;;;;;;5071238;28;20702;-72
2022/02/05 15:27:32;;;;;;;14.85;7.18;;;256.10;2252.80;;;;;;5072923;28;20028;-72